sensor_id;sensor_type;location;lat;lon;timestamp;P1;durP1;ratioP1;P2;durP2;ratioP2
50631;SDS011;49583;45.590;-122.498;2023-02-25T00:01:22;2.50;;;1.50;;
50631;SDS011;49583;45.590;-122.498;2023-02-25T00:03:39;1.40;;;1.30;;
50631;SDS011;49583;45.590;-122.498;2023-02-25T00:05:53;1.70;;;1.40;;
50631;SDS011;49583;45.590;-122.498;2023-02-25T00:08:06;3.70;;;1.30;;
50631;SDS011;49583;45.590;-122.498;2023-02-25T00:10:20;1.50;;;1.40;;
50631;SDS011;49583;45.590;-122.498;2023-02-25T00:12:33;2.70;;;1.50;;
50631;SDS011;49583;45.590;-122.498;2023-02-25T00:14:46;2.50;;;1.40;;
50631;SDS011;49583;45.590;-122.498;2023-02-25T00:17:00;1.80;;;1.20;;
50631;SDS011;49583;45.590;-122.498;2023-02-25T00:19:13;3.00;;;1.50;;
50631;SDS011;49583;45.590;-122.498;2023-02-25T00:21:26;2.10;;;1.70;;
50631;SDS011;49583;45.590;-122.498;2023-02-25T00:23:39;2.00;;;1.60;;
50631;SDS011;49583;45.590;-122.498;2023-02-25T00:25:59;2.30;;;1.40;;
50631;SDS011;49583;45.590;-122.498;2023-02-25T00:28:13;3.00;;;1.40;;
50631;SDS011;49583;45.590;-122.498;2023-02-25T00:30:30;3.70;;;1.30;;
50631;SDS011;49583;45.590;-122.498;2023-02-25T00:32:57;3.00;;;1.60;;
50631;SDS011;49583;45.590;-122.498;2023-02-25T00:35:13;2.70;;;1.20;;
50631;SDS011;49583;45.590;-122.498;2023-02-25T00:37:27;2.30;;;1.40;;
50631;SDS011;49583;45.590;-122.498;2023-02-25T00:39:41;1.10;;;1.10;;
50631;SDS011;49583;45.590;-122.498;2023-02-25T00:41:55;1.30;;;1.20;;
50631;SDS011;49583;45.590;-122.498;2023-02-25T00:44:08;1.60;;;1.50;;
50631;SDS011;49583;45.590;-122.498;2023-02-25T00:46:24;1.90;;;1.70;;
50631;SDS011;49583;45.590;-122.498;2023-02-25T00:48:38;3.90;;;1.50;;
50631;SDS011;49583;45.590;-122.498;2023-02-25T00:50:53;1.50;;;1.40;;
50631;SDS011;49583;45.590;-122.498;2023-02-25T00:53:07;1.90;;;1.40;;
50631;SDS011;49583;45.590;-122.498;2023-02-25T00:55:19;6.80;;;1.50;;
50631;SDS011;49583;45.590;-122.498;2023-02-25T00:57:39;1.70;;;1.60;;
50631;SDS011;49583;45.590;-122.498;2023-02-25T00:59:52;2.20;;;1.60;;
50631;SDS011;49583;45.590;-122.498;2023-02-25T01:02:05;1.80;;;1.40;;
50631;SDS011;49583;45.590;-122.498;2023-02-25T01:04:19;12.00;;;1.60;;
50631;SDS011;49583;45.590;-122.498;2023-02-25T01:06:33;1.90;;;1.10;;
50631;SDS011;49583;45.590;-122.498;2023-02-25T01:08:49;2.90;;;1.50;;
50631;SDS011;49583;45.590;-122.498;2023-02-25T01:11:11;1.30;;;1.20;;
50631;SDS011;49583;45.590;-122.498;2023-02-25T01:13:27;4.00;;;1.90;;
50631;SDS011;49583;45.590;-122.498;2023-02-25T01:15:41;2.30;;;1.60;;
50631;SDS011;49583;45.590;-122.498;2023-02-25T01:17:55;2.90;;;1.80;;
50631;SDS011;49583;45.590;-122.498;2023-02-25T01:20:10;1.50;;;1.30;;
50631;SDS011;49583;45.590;-122.498;2023-02-25T01:22:27;3.00;;;1.50;;
50631;SDS011;49583;45.590;-122.498;2023-02-25T01:24:41;2.20;;;1.40;;
50631;SDS011;49583;45.590;-122.498;2023-02-25T01:26:55;4.00;;;1.60;;
50631;SDS011;49583;45.590;-122.498;2023-02-25T01:29:10;1.60;;;1.50;;
50631;SDS011;49583;45.590;-122.498;2023-02-25T01:31:26;2.10;;;1.40;;
50631;SDS011;49583;45.590;-122.498;2023-02-25T01:33:42;6.40;;;1.70;;
50631;SDS011;49583;45.590;-122.498;2023-02-25T01:35:57;1.60;;;1.40;;
50631;SDS011;49583;45.590;-122.498;2023-02-25T01:38:14;1.40;;;1.20;;
50631;SDS011;49583;45.590;-122.498;2023-02-25T01:40:28;2.10;;;1.60;;
50631;SDS011;49583;45.590;-122.498;2023-02-25T01:42:42;1.30;;;1.20;;
50631;SDS011;49583;45.590;-122.498;2023-02-25T01:47:40;2.10;;;1.70;;
50631;SDS011;49583;45.590;-122.498;2023-02-25T01:49:55;1.50;;;1.40;;
50631;SDS011;49583;45.590;-122.498;2023-02-25T01:52:10;1.60;;;1.30;;
50631;SDS011;49583;45.590;-122.498;2023-02-25T01:54:26;1.40;;;1.30;;
50631;SDS011;49583;45.590;-122.498;2023-02-25T01:56:40;1.60;;;1.40;;
50631;SDS011;49583;45.590;-122.498;2023-02-25T01:58:58;2.80;;;1.40;;
50631;SDS011;49583;45.590;-122.498;2023-02-25T02:01:13;2.00;;;1.50;;
50631;SDS011;49583;45.590;-122.498;2023-02-25T02:03:29;2.10;;;1.70;;
50631;SDS011;49583;45.590;-122.498;2023-02-25T02:05:57;2.50;;;1.60;;
50631;SDS011;49583;45.590;-122.498;2023-02-25T02:08:18;1.80;;;1.50;;
50631;SDS011;49583;45.590;-122.498;2023-02-25T02:10:32;2.10;;;1.50;;
50631;SDS011;49583;45.590;-122.498;2023-02-25T02:12:47;1.90;;;1.70;;
50631;SDS011;49583;45.590;-122.498;2023-02-25T02:15:01;2.40;;;1.80;;
50631;SDS011;49583;45.590;-122.498;2023-02-25T02:17:20;3.40;;;1.40;;
50631;SDS011;49583;45.590;-122.498;2023-02-25T02:19:55;2.20;;;1.70;;
50631;SDS011;49583;45.590;-122.498;2023-02-25T02:22:20;2.90;;;2.20;;
50631;SDS011;49583;45.590;-122.498;2023-02-25T02:24:53;2.10;;;1.60;;
50631;SDS011;49583;45.590;-122.498;2023-02-25T02:32:25;1.70;;;1.30;;
50631;SDS011;49583;45.590;-122.498;2023-02-25T02:34:47;1.50;;;1.40;;
50631;SDS011;49583;45.590;-122.498;2023-02-25T02:37:22;2.70;;;1.90;;
50631;SDS011;49583;45.590;-122.498;2023-02-25T02:39:48;2.70;;;1.60;;
50631;SDS011;49583;45.590;-122.498;2023-02-25T02:42:09;3.20;;;2.00;;
50631;SDS011;49583;45.590;-122.498;2023-02-25T02:44:37;1.90;;;1.60;;
50631;SDS011;49583;45.590;-122.498;2023-02-25T02:46:58;3.20;;;1.60;;
50631;SDS011;49583;45.590;-122.498;2023-02-25T02:49:14;2.50;;;1.70;;
50631;SDS011;49583;45.590;-122.498;2023-02-25T02:51:34;2.30;;;1.70;;
50631;SDS011;49583;45.590;-122.498;2023-02-25T02:53:54;4.10;;;1.80;;
50631;SDS011;49583;45.590;-122.498;2023-02-25T02:56:13;1.60;;;1.50;;
50631;SDS011;49583;45.590;-122.498;2023-02-25T02:58:30;1.80;;;1.60;;
50631;SDS011;49583;45.590;-122.498;2023-02-25T03:00:48;3.10;;;1.80;;
50631;SDS011;49583;45.590;-122.498;2023-02-25T03:03:07;1.80;;;1.50;;
50631;SDS011;49583;45.590;-122.498;2023-02-25T03:05:23;1.40;;;1.30;;
50631;SDS011;49583;45.590;-122.498;2023-02-25T03:07:42;1.20;;;1.10;;
50631;SDS011;49583;45.590;-122.498;2023-02-25T03:10:01;2.20;;;2.00;;
50631;SDS011;49583;45.590;-122.498;2023-02-25T03:12:16;1.90;;;1.80;;
50631;SDS011;49583;45.590;-122.498;2023-02-25T03:14:29;3.20;;;2.10;;
50631;SDS011;49583;45.590;-122.498;2023-02-25T03:16:43;2.00;;;1.80;;
50631;SDS011;49583;45.590;-122.498;2023-02-25T03:19:03;6.50;;;1.90;;
50631;SDS011;49583;45.590;-122.498;2023-02-25T03:21:21;1.70;;;1.60;;
50631;SDS011;49583;45.590;-122.498;2023-02-25T03:23:39;1.90;;;1.70;;
50631;SDS011;49583;45.590;-122.498;2023-02-25T03:25:57;4.80;;;2.00;;
50631;SDS011;49583;45.590;-122.498;2023-02-25T03:28:20;3.20;;;1.40;;
50631;SDS011;49583;45.590;-122.498;2023-02-25T03:32:54;2.10;;;1.60;;
50631;SDS011;49583;45.590;-122.498;2023-02-25T03:35:10;3.80;;;1.80;;
50631;SDS011;49583;45.590;-122.498;2023-02-25T03:37:28;3.30;;;2.20;;
50631;SDS011;49583;45.590;-122.498;2023-02-25T03:39:45;2.70;;;2.00;;
50631;SDS011;49583;45.590;-122.498;2023-02-25T03:42:02;1.80;;;1.70;;
50631;SDS011;49583;45.590;-122.498;2023-02-25T03:44:21;2.10;;;1.80;;
50631;SDS011;49583;45.590;-122.498;2023-02-25T03:46:38;3.60;;;1.80;;
50631;SDS011;49583;45.590;-122.498;2023-02-25T03:48:55;2.00;;;1.50;;
50631;SDS011;49583;45.590;-122.498;2023-02-25T03:51:11;2.00;;;1.80;;
50631;SDS011;49583;45.590;-122.498;2023-02-25T03:53:29;2.00;;;1.80;;
50631;SDS011;49583;45.590;-122.498;2023-02-25T03:55:54;2.10;;;1.90;;
50631;SDS011;49583;45.590;-122.498;2023-02-25T03:58:13;2.90;;;1.80;;
50631;SDS011;49583;45.590;-122.498;2023-02-25T04:00:27;2.10;;;1.70;;
50631;SDS011;49583;45.590;-122.498;2023-02-25T04:02:43;1.70;;;1.40;;
50631;SDS011;49583;45.590;-122.498;2023-02-25T04:04:58;2.10;;;1.50;;
50631;SDS011;49583;45.590;-122.498;2023-02-25T04:07:11;2.10;;;1.90;;
50631;SDS011;49583;45.590;-122.498;2023-02-25T04:09:23;2.60;;;1.90;;
50631;SDS011;49583;45.590;-122.498;2023-02-25T04:11:37;2.10;;;1.60;;
50631;SDS011;49583;45.590;-122.498;2023-02-25T04:13:50;2.40;;;2.00;;
50631;SDS011;49583;45.590;-122.498;2023-02-25T04:16:04;3.80;;;2.00;;
50631;SDS011;49583;45.590;-122.498;2023-02-25T04:18:18;2.30;;;1.70;;
50631;SDS011;49583;45.590;-122.498;2023-02-25T04:20:31;2.10;;;1.90;;
50631;SDS011;49583;45.590;-122.498;2023-02-25T04:22:47;2.60;;;2.00;;
50631;SDS011;49583;45.590;-122.498;2023-02-25T04:25:01;2.50;;;1.90;;
50631;SDS011;49583;45.590;-122.498;2023-02-25T04:27:18;2.10;;;1.80;;
50631;SDS011;49583;45.590;-122.498;2023-02-25T04:29:32;2.20;;;1.50;;
50631;SDS011;49583;45.590;-122.498;2023-02-25T04:31:45;3.50;;;1.80;;
50631;SDS011;49583;45.590;-122.498;2023-02-25T04:33:59;3.20;;;2.30;;
50631;SDS011;49583;45.590;-122.498;2023-02-25T04:36:22;2.70;;;1.80;;
50631;SDS011;49583;45.590;-122.498;2023-02-25T04:38:37;2.50;;;2.10;;
50631;SDS011;49583;45.590;-122.498;2023-02-25T04:40:51;2.10;;;1.90;;
50631;SDS011;49583;45.590;-122.498;2023-02-25T04:43:05;1.60;;;1.50;;
50631;SDS011;49583;45.590;-122.498;2023-02-25T04:45:19;1.70;;;1.60;;
50631;SDS011;49583;45.590;-122.498;2023-02-25T04:47:33;2.60;;;2.40;;
50631;SDS011;49583;45.590;-122.498;2023-02-25T04:49:47;2.60;;;2.00;;
50631;SDS011;49583;45.590;-122.498;2023-02-25T04:52:00;2.80;;;2.10;;
50631;SDS011;49583;45.590;-122.498;2023-02-25T04:54:13;2.90;;;2.10;;
50631;SDS011;49583;45.590;-122.498;2023-02-25T04:56:27;2.60;;;2.40;;
50631;SDS011;49583;45.590;-122.498;2023-02-25T04:58:41;3.10;;;2.70;;
50631;SDS011;49583;45.590;-122.498;2023-02-25T05:00:55;2.90;;;2.30;;
50631;SDS011;49583;45.590;-122.498;2023-02-25T05:03:11;5.80;;;1.80;;
50631;SDS011;49583;45.590;-122.498;2023-02-25T05:05:24;2.20;;;1.70;;
50631;SDS011;49583;45.590;-122.498;2023-02-25T05:07:38;2.00;;;1.60;;
50631;SDS011;49583;45.590;-122.498;2023-02-25T05:09:55;1.60;;;1.50;;
50631;SDS011;49583;45.590;-122.498;2023-02-25T05:12:09;3.90;;;1.90;;
50631;SDS011;49583;45.590;-122.498;2023-02-25T05:14:24;3.00;;;1.80;;
50631;SDS011;49583;45.590;-122.498;2023-02-25T05:16:39;1.80;;;1.70;;
50631;SDS011;49583;45.590;-122.498;2023-02-25T05:18:54;2.30;;;1.90;;
50631;SDS011;49583;45.590;-122.498;2023-02-25T05:21:09;2.40;;;1.80;;
50631;SDS011;49583;45.590;-122.498;2023-02-25T05:23:24;2.30;;;1.70;;
50631;SDS011;49583;45.590;-122.498;2023-02-25T05:25:37;2.10;;;1.90;;
50631;SDS011;49583;45.590;-122.498;2023-02-25T05:27:51;2.90;;;1.90;;
50631;SDS011;49583;45.590;-122.498;2023-02-25T05:30:06;2.20;;;1.90;;
50631;SDS011;49583;45.590;-122.498;2023-02-25T05:32:22;2.20;;;1.80;;
50631;SDS011;49583;45.590;-122.498;2023-02-25T05:34:37;4.00;;;1.70;;
50631;SDS011;49583;45.590;-122.498;2023-02-25T05:36:52;4.90;;;1.50;;
50631;SDS011;49583;45.590;-122.498;2023-02-25T05:39:06;2.20;;;1.70;;
50631;SDS011;49583;45.590;-122.498;2023-02-25T05:41:25;2.90;;;1.80;;
50631;SDS011;49583;45.590;-122.498;2023-02-25T05:43:40;2.00;;;1.80;;
50631;SDS011;49583;45.590;-122.498;2023-02-25T05:45:55;2.50;;;2.00;;
50631;SDS011;49583;45.590;-122.498;2023-02-25T05:48:11;3.50;;;1.80;;
50631;SDS011;49583;45.590;-122.498;2023-02-25T05:50:24;2.00;;;1.70;;
50631;SDS011;49583;45.590;-122.498;2023-02-25T05:52:38;1.90;;;1.70;;
50631;SDS011;49583;45.590;-122.498;2023-02-25T05:54:51;1.70;;;1.50;;
50631;SDS011;49583;45.590;-122.498;2023-02-25T05:57:05;2.70;;;1.80;;
50631;SDS011;49583;45.590;-122.498;2023-02-25T05:59:19;2.80;;;1.80;;
50631;SDS011;49583;45.590;-122.498;2023-02-25T06:01:32;2.70;;;1.50;;
50631;SDS011;49583;45.590;-122.498;2023-02-25T06:03:46;2.80;;;1.80;;
50631;SDS011;49583;45.590;-122.498;2023-02-25T06:06:01;3.00;;;1.80;;
50631;SDS011;49583;45.590;-122.498;2023-02-25T06:08:14;2.10;;;2.00;;
50631;SDS011;49583;45.590;-122.498;2023-02-25T06:10:28;2.00;;;1.60;;
50631;SDS011;49583;45.590;-122.498;2023-02-25T06:12:45;2.30;;;1.90;;
50631;SDS011;49583;45.590;-122.498;2023-02-25T06:14:59;3.30;;;1.80;;
50631;SDS011;49583;45.590;-122.498;2023-02-25T06:17:13;2.10;;;1.90;;
50631;SDS011;49583;45.590;-122.498;2023-02-25T06:19:26;1.70;;;1.60;;
50631;SDS011;49583;45.590;-122.498;2023-02-25T06:21:40;2.30;;;1.60;;
50631;SDS011;49583;45.590;-122.498;2023-02-25T06:23:54;2.20;;;1.70;;
50631;SDS011;49583;45.590;-122.498;2023-02-25T06:26:08;3.20;;;1.80;;
50631;SDS011;49583;45.590;-122.498;2023-02-25T06:28:23;2.00;;;1.60;;
50631;SDS011;49583;45.590;-122.498;2023-02-25T06:30:40;1.80;;;1.70;;
50631;SDS011;49583;45.590;-122.498;2023-02-25T06:32:53;2.60;;;1.90;;
50631;SDS011;49583;45.590;-122.498;2023-02-25T06:35:08;2.50;;;2.30;;
50631;SDS011;49583;45.590;-122.498;2023-02-25T06:37:22;2.90;;;1.90;;
50631;SDS011;49583;45.590;-122.498;2023-02-25T06:39:36;2.00;;;1.80;;
50631;SDS011;49583;45.590;-122.498;2023-02-25T06:41:50;2.30;;;2.10;;
50631;SDS011;49583;45.590;-122.498;2023-02-25T06:44:03;2.60;;;1.60;;
50631;SDS011;49583;45.590;-122.498;2023-02-25T06:46:17;2.70;;;2.20;;
50631;SDS011;49583;45.590;-122.498;2023-02-25T06:48:32;2.20;;;2.00;;
50631;SDS011;49583;45.590;-122.498;2023-02-25T06:50:46;1.70;;;1.40;;
50631;SDS011;49583;45.590;-122.498;2023-02-25T06:53:00;1.80;;;1.70;;
50631;SDS011;49583;45.590;-122.498;2023-02-25T06:55:13;2.40;;;1.90;;
50631;SDS011;49583;45.590;-122.498;2023-02-25T06:57:26;3.20;;;1.70;;
50631;SDS011;49583;45.590;-122.498;2023-02-25T06:59:40;2.00;;;1.70;;
50631;SDS011;49583;45.590;-122.498;2023-02-25T07:01:54;4.10;;;1.90;;
50631;SDS011;49583;45.590;-122.498;2023-02-25T07:04:08;1.50;;;1.40;;
50631;SDS011;49583;45.590;-122.498;2023-02-25T07:06:24;2.10;;;1.80;;
50631;SDS011;49583;45.590;-122.498;2023-02-25T07:08:38;2.20;;;1.80;;
50631;SDS011;49583;45.590;-122.498;2023-02-25T07:10:51;2.40;;;1.60;;
50631;SDS011;49583;45.590;-122.498;2023-02-25T07:13:06;2.10;;;1.90;;
50631;SDS011;49583;45.590;-122.498;2023-02-25T07:15:21;2.40;;;1.90;;
50631;SDS011;49583;45.590;-122.498;2023-02-25T07:17:37;2.40;;;1.90;;
50631;SDS011;49583;45.590;-122.498;2023-02-25T07:19:51;2.60;;;2.10;;
50631;SDS011;49583;45.590;-122.498;2023-02-25T07:22:05;1.90;;;1.60;;
50631;SDS011;49583;45.590;-122.498;2023-02-25T07:24:22;1.70;;;1.50;;
50631;SDS011;49583;45.590;-122.498;2023-02-25T07:26:36;2.20;;;1.90;;
50631;SDS011;49583;45.590;-122.498;2023-02-25T07:28:50;2.20;;;2.00;;
50631;SDS011;49583;45.590;-122.498;2023-02-25T07:31:07;2.40;;;1.80;;
50631;SDS011;49583;45.590;-122.498;2023-02-25T07:33:23;2.40;;;1.80;;
50631;SDS011;49583;45.590;-122.498;2023-02-25T07:35:36;2.40;;;2.20;;
50631;SDS011;49583;45.590;-122.498;2023-02-25T07:37:50;2.20;;;1.80;;
50631;SDS011;49583;45.590;-122.498;2023-02-25T07:40:03;5.70;;;2.00;;
50631;SDS011;49583;45.590;-122.498;2023-02-25T07:42:20;1.80;;;1.50;;
50631;SDS011;49583;45.590;-122.498;2023-02-25T07:44:37;1.90;;;1.80;;
50631;SDS011;49583;45.590;-122.498;2023-02-25T07:46:51;2.10;;;2.00;;
50631;SDS011;49583;45.590;-122.498;2023-02-25T07:49:05;2.20;;;1.70;;
50631;SDS011;49583;45.590;-122.498;2023-02-25T07:51:20;9.00;;;2.00;;
50631;SDS011;49583;45.590;-122.498;2023-02-25T07:53:35;2.80;;;2.00;;
50631;SDS011;49583;45.590;-122.498;2023-02-25T07:55:49;3.00;;;2.20;;
50631;SDS011;49583;45.590;-122.498;2023-02-25T07:58:02;3.60;;;2.30;;
50631;SDS011;49583;45.590;-122.498;2023-02-25T08:00:16;2.50;;;1.80;;
50631;SDS011;49583;45.590;-122.498;2023-02-25T08:02:31;2.20;;;1.90;;
50631;SDS011;49583;45.590;-122.498;2023-02-25T08:04:47;3.50;;;1.70;;
50631;SDS011;49583;45.590;-122.498;2023-02-25T08:07:00;2.20;;;2.00;;
50631;SDS011;49583;45.590;-122.498;2023-02-25T08:09:14;2.10;;;2.00;;
50631;SDS011;49583;45.590;-122.498;2023-02-25T08:11:27;1.80;;;1.70;;
50631;SDS011;49583;45.590;-122.498;2023-02-25T08:13:42;2.10;;;1.90;;
50631;SDS011;49583;45.590;-122.498;2023-02-25T08:15:56;2.20;;;1.70;;
50631;SDS011;49583;45.590;-122.498;2023-02-25T08:18:12;2.20;;;2.00;;
50631;SDS011;49583;45.590;-122.498;2023-02-25T08:20:25;2.80;;;2.30;;
50631;SDS011;49583;45.590;-122.498;2023-02-25T08:22:39;2.00;;;1.90;;
50631;SDS011;49583;45.590;-122.498;2023-02-25T08:24:52;3.90;;;2.30;;
50631;SDS011;49583;45.590;-122.498;2023-02-25T08:27:06;2.90;;;2.20;;
50631;SDS011;49583;45.590;-122.498;2023-02-25T08:29:20;2.90;;;2.70;;
50631;SDS011;49583;45.590;-122.498;2023-02-25T08:31:33;3.50;;;1.80;;
50631;SDS011;49583;45.590;-122.498;2023-02-25T08:33:47;2.40;;;2.20;;
50631;SDS011;49583;45.590;-122.498;2023-02-25T08:36:07;4.00;;;2.70;;
50631;SDS011;49583;45.590;-122.498;2023-02-25T08:38:23;2.90;;;2.50;;
50631;SDS011;49583;45.590;-122.498;2023-02-25T08:40:37;2.20;;;1.90;;
50631;SDS011;49583;45.590;-122.498;2023-02-25T08:42:51;4.00;;;2.10;;
50631;SDS011;49583;45.590;-122.498;2023-02-25T08:45:05;3.50;;;2.10;;
50631;SDS011;49583;45.590;-122.498;2023-02-25T08:47:20;3.80;;;2.20;;
50631;SDS011;49583;45.590;-122.498;2023-02-25T08:49:33;2.50;;;2.10;;
50631;SDS011;49583;45.590;-122.498;2023-02-25T08:51:46;2.50;;;2.20;;
50631;SDS011;49583;45.590;-122.498;2023-02-25T08:54:04;3.70;;;2.50;;
50631;SDS011;49583;45.590;-122.498;2023-02-25T08:56:21;2.60;;;2.30;;
50631;SDS011;49583;45.590;-122.498;2023-02-25T08:58:36;3.10;;;2.70;;
50631;SDS011;49583;45.590;-122.498;2023-02-25T09:00:50;3.10;;;2.80;;
50631;SDS011;49583;45.590;-122.498;2023-02-25T09:03:04;3.10;;;2.40;;
50631;SDS011;49583;45.590;-122.498;2023-02-25T09:05:17;6.10;;;2.20;;
50631;SDS011;49583;45.590;-122.498;2023-02-25T09:07:31;4.90;;;2.40;;
50631;SDS011;49583;45.590;-122.498;2023-02-25T09:09:44;2.30;;;2.10;;
50631;SDS011;49583;45.590;-122.498;2023-02-25T09:11:58;2.40;;;2.20;;
50631;SDS011;49583;45.590;-122.498;2023-02-25T09:14:12;2.80;;;2.10;;
50631;SDS011;49583;45.590;-122.498;2023-02-25T09:16:28;2.20;;;2.00;;
50631;SDS011;49583;45.590;-122.498;2023-02-25T09:18:43;2.60;;;2.40;;
50631;SDS011;49583;45.590;-122.498;2023-02-25T09:20:57;3.80;;;2.10;;
50631;SDS011;49583;45.590;-122.498;2023-02-25T09:23:11;1.90;;;1.50;;
50631;SDS011;49583;45.590;-122.498;2023-02-25T09:25:25;2.50;;;2.30;;
50631;SDS011;49583;45.590;-122.498;2023-02-25T09:27:39;4.00;;;2.20;;
50631;SDS011;49583;45.590;-122.498;2023-02-25T09:29:54;3.10;;;2.70;;
50631;SDS011;49583;45.590;-122.498;2023-02-25T09:32:07;2.50;;;2.30;;
50631;SDS011;49583;45.590;-122.498;2023-02-25T09:34:27;2.30;;;2.10;;
50631;SDS011;49583;45.590;-122.498;2023-02-25T09:36:42;4.70;;;2.20;;
50631;SDS011;49583;45.590;-122.498;2023-02-25T09:38:55;3.70;;;2.60;;
50631;SDS011;49583;45.590;-122.498;2023-02-25T09:41:15;5.70;;;3.30;;
50631;SDS011;49583;45.590;-122.498;2023-02-25T09:43:36;6.30;;;2.80;;
50631;SDS011;49583;45.590;-122.498;2023-02-25T09:45:52;3.40;;;2.50;;
50631;SDS011;49583;45.590;-122.498;2023-02-25T09:48:13;3.80;;;2.50;;
50631;SDS011;49583;45.590;-122.498;2023-02-25T09:50:31;3.10;;;2.60;;
50631;SDS011;49583;45.590;-122.498;2023-02-25T09:52:52;2.60;;;2.40;;
50631;SDS011;49583;45.590;-122.498;2023-02-25T09:55:17;3.80;;;2.70;;
50631;SDS011;49583;45.590;-122.498;2023-02-25T09:57:31;8.40;;;2.50;;
50631;SDS011;49583;45.590;-122.498;2023-02-25T09:59:49;3.80;;;2.60;;
50631;SDS011;49583;45.590;-122.498;2023-02-25T10:02:05;3.10;;;2.30;;
50631;SDS011;49583;45.590;-122.498;2023-02-25T10:04:37;2.60;;;2.40;;
50631;SDS011;49583;45.590;-122.498;2023-02-25T10:06:57;2.50;;;2.30;;
50631;SDS011;49583;45.590;-122.498;2023-02-25T10:09:19;2.80;;;2.00;;
50631;SDS011;49583;45.590;-122.498;2023-02-25T10:11:51;2.30;;;2.10;;
50631;SDS011;49583;45.590;-122.498;2023-02-25T10:14:14;2.40;;;1.90;;
50631;SDS011;49583;45.590;-122.498;2023-02-25T10:16:49;2.90;;;2.50;;
50631;SDS011;49583;45.590;-122.498;2023-02-25T10:19:10;2.10;;;1.90;;
50631;SDS011;49583;45.590;-122.498;2023-02-25T10:23:53;3.30;;;2.10;;
50631;SDS011;49583;45.590;-122.498;2023-02-25T10:26:22;4.40;;;2.50;;
50631;SDS011;49583;45.590;-122.498;2023-02-25T10:28:40;3.70;;;2.00;;
50631;SDS011;49583;45.590;-122.498;2023-02-25T10:30:57;3.00;;;2.30;;
50631;SDS011;49583;45.590;-122.498;2023-02-25T10:33:14;3.00;;;2.70;;
50631;SDS011;49583;45.590;-122.498;2023-02-25T10:35:32;2.90;;;2.40;;
50631;SDS011;49583;45.590;-122.498;2023-02-25T10:37:48;3.00;;;2.70;;
50631;SDS011;49583;45.590;-122.498;2023-02-25T10:40:03;4.10;;;3.00;;
50631;SDS011;49583;45.590;-122.498;2023-02-25T10:42:23;7.30;;;3.00;;
50631;SDS011;49583;45.590;-122.498;2023-02-25T10:44:36;3.50;;;3.00;;
50631;SDS011;49583;45.590;-122.498;2023-02-25T10:46:51;3.30;;;3.00;;
50631;SDS011;49583;45.590;-122.498;2023-02-25T10:49:15;3.30;;;2.90;;
50631;SDS011;49583;45.590;-122.498;2023-02-25T10:51:32;8.20;;;3.50;;
50631;SDS011;49583;45.590;-122.498;2023-02-25T10:56:13;5.70;;;3.60;;
50631;SDS011;49583;45.590;-122.498;2023-02-25T10:58:29;5.70;;;3.30;;
50631;SDS011;49583;45.590;-122.498;2023-02-25T11:00:44;5.60;;;2.90;;
50631;SDS011;49583;45.590;-122.498;2023-02-25T11:03:13;5.40;;;3.20;;
50631;SDS011;49583;45.590;-122.498;2023-02-25T11:05:35;4.80;;;3.70;;
50631;SDS011;49583;45.590;-122.498;2023-02-25T11:07:51;8.00;;;4.00;;
50631;SDS011;49583;45.590;-122.498;2023-02-25T11:10:11;4.90;;;4.00;;
50631;SDS011;49583;45.590;-122.498;2023-02-25T11:12:30;4.10;;;3.50;;
50631;SDS011;49583;45.590;-122.498;2023-02-25T11:14:48;4.90;;;4.20;;
50631;SDS011;49583;45.590;-122.498;2023-02-25T11:17:03;6.00;;;4.20;;
50631;SDS011;49583;45.590;-122.498;2023-02-25T11:19:27;5.80;;;3.80;;
50631;SDS011;49583;45.590;-122.498;2023-02-25T11:21:44;8.00;;;4.20;;
50631;SDS011;49583;45.590;-122.498;2023-02-25T11:24:00;10.10;;;5.10;;
50631;SDS011;49583;45.590;-122.498;2023-02-25T11:26:26;5.30;;;4.30;;
50631;SDS011;49583;45.590;-122.498;2023-02-25T11:28:42;5.40;;;4.10;;
50631;SDS011;49583;45.590;-122.498;2023-02-25T11:30:57;7.00;;;4.30;;
50631;SDS011;49583;45.590;-122.498;2023-02-25T11:33:23;6.80;;;4.80;;
50631;SDS011;49583;45.590;-122.498;2023-02-25T11:35:41;7.60;;;4.10;;
50631;SDS011;49583;45.590;-122.498;2023-02-25T11:37:55;9.00;;;5.00;;
50631;SDS011;49583;45.590;-122.498;2023-02-25T11:40:22;9.40;;;5.10;;
50631;SDS011;49583;45.590;-122.498;2023-02-25T11:42:39;7.10;;;5.00;;
50631;SDS011;49583;45.590;-122.498;2023-02-25T11:44:53;8.20;;;4.90;;
50631;SDS011;49583;45.590;-122.498;2023-02-25T11:47:18;6.20;;;4.60;;
50631;SDS011;49583;45.590;-122.498;2023-02-25T11:49:48;6.50;;;4.40;;
50631;SDS011;49583;45.590;-122.498;2023-02-25T11:52:16;8.10;;;4.10;;
50631;SDS011;49583;45.590;-122.498;2023-02-25T11:54:36;5.30;;;4.60;;
50631;SDS011;49583;45.590;-122.498;2023-02-25T11:57:00;6.00;;;4.10;;
50631;SDS011;49583;45.590;-122.498;2023-02-25T11:59:29;7.90;;;4.90;;
50631;SDS011;49583;45.590;-122.498;2023-02-25T12:04:44;5.90;;;4.40;;
50631;SDS011;49583;45.590;-122.498;2023-02-25T12:07:35;6.10;;;3.80;;
50631;SDS011;49583;45.590;-122.498;2023-02-25T12:15:42;11.60;;;4.30;;
50631;SDS011;49583;45.590;-122.498;2023-02-25T12:18:28;14.40;;;3.90;;
50631;SDS011;49583;45.590;-122.498;2023-02-25T12:21:22;4.20;;;3.30;;
50631;SDS011;49583;45.590;-122.498;2023-02-25T12:24:08;8.80;;;4.50;;
50631;SDS011;49583;45.590;-122.498;2023-02-25T12:26:51;8.40;;;3.60;;
50631;SDS011;49583;45.590;-122.498;2023-02-25T12:29:31;21.60;;;5.60;;
50631;SDS011;49583;45.590;-122.498;2023-02-25T12:37:43;13.60;;;4.80;;
50631;SDS011;49583;45.590;-122.498;2023-02-25T12:40:31;11.80;;;4.70;;
50631;SDS011;49583;45.590;-122.498;2023-02-25T12:43:04;7.80;;;3.50;;
50631;SDS011;49583;45.590;-122.498;2023-02-25T12:45:50;9.90;;;3.90;;
50631;SDS011;49583;45.590;-122.498;2023-02-25T12:51:37;4.00;;;3.60;;
50631;SDS011;49583;45.590;-122.498;2023-02-25T12:54:10;4.00;;;2.80;;
50631;SDS011;49583;45.590;-122.498;2023-02-25T13:07:57;2.60;;;2.40;;
50631;SDS011;49583;45.590;-122.498;2023-02-25T13:10:49;3.90;;;2.40;;
50631;SDS011;49583;45.590;-122.498;2023-02-25T13:13:22;3.00;;;2.40;;
50631;SDS011;49583;45.590;-122.498;2023-02-25T13:15:56;3.90;;;2.90;;
50631;SDS011;49583;45.590;-122.498;2023-02-25T13:18:24;5.30;;;3.20;;
50631;SDS011;49583;45.590;-122.498;2023-02-25T13:20:46;8.20;;;3.30;;
50631;SDS011;49583;45.590;-122.498;2023-02-25T13:25:45;4.80;;;3.40;;
50631;SDS011;49583;45.590;-122.498;2023-02-25T13:28:14;3.70;;;3.40;;
50631;SDS011;49583;45.590;-122.498;2023-02-25T13:30:43;3.60;;;2.90;;
50631;SDS011;49583;45.590;-122.498;2023-02-25T13:35:50;3.20;;;3.00;;
50631;SDS011;49583;45.590;-122.498;2023-02-25T13:38:10;3.10;;;2.80;;
50631;SDS011;49583;45.590;-122.498;2023-02-25T13:40:46;4.80;;;3.20;;
50631;SDS011;49583;45.590;-122.498;2023-02-25T13:43:27;4.60;;;2.80;;
50631;SDS011;49583;45.590;-122.498;2023-02-25T13:46:00;3.80;;;2.90;;
50631;SDS011;49583;45.590;-122.498;2023-02-25T13:48:45;4.70;;;3.90;;
50631;SDS011;49583;45.590;-122.498;2023-02-25T13:54:00;5.40;;;3.50;;
50631;SDS011;49583;45.590;-122.498;2023-02-25T13:56:28;3.70;;;3.10;;
50631;SDS011;49583;45.590;-122.498;2023-02-25T13:58:59;3.30;;;3.00;;
50631;SDS011;49583;45.590;-122.498;2023-02-25T14:01:42;5.60;;;3.20;;
50631;SDS011;49583;45.590;-122.498;2023-02-25T14:07:00;3.90;;;3.50;;
50631;SDS011;49583;45.590;-122.498;2023-02-25T14:09:34;3.70;;;3.40;;
50631;SDS011;49583;45.590;-122.498;2023-02-25T14:11:57;4.00;;;3.70;;